CDT,Max TemperatureF,Mean TemperatureF,Min TemperatureF,Max Dew PointF,MeanDew PointF,Min DewpointF,Max Humidity, Mean Humidity, Min Humidity, Max Sea Level PressureIn, Mean Sea Level PressureIn, Min Sea Level PressureIn, Max VisibilityMiles, Mean VisibilityMiles, Min VisibilityMiles, Max Wind SpeedMPH, Mean Wind SpeedMPH, Max Gust SpeedMPH,PrecipitationIn, CloudCover, Events, WindDirDegrees
2013-8-1,72,61,49,55,51,46,100,74,47,29.99,29.95,29.89,10,9,0,17,6,23,0.02,3,Fog,282
2013-8-2,72,60,47,55,50,46,96,69,41,30.03,29.90,29.84,10,9,0,14,5,21,0.04,2,Fog-Rain-Thunderstorm,300
2013-8-3,72,58,44,50,47,42,93,65,37,30.22,30.12,30.03,10,9,1,14,5,21,0.00,1,,309
2013-8-4,71,56,41,52,45,39,100,69,37,30.28,30.22,30.12,10,6,0,9,1,14,0.00,1,Fog,226
2013-8-5,68,59,50,63,58,48,97,87,77,30.09,29.93,29.86,10,8,1,10,3,13,0.62,7,Rain,184
2013-8-6,75,67,59,61,59,55,100,75,50,29.88,29.82,29.76,10,7,1,14,7,22,0.68,7,Rain-Thunderstorm,218
2013-8-7,70,58,45,58,54,41,100,70,40,30.06,29.89,29.74,10,10,1,13,6,20,0.00,5,,296
2013-8-8,75,59,43,56,47,42,100,69,38,30.09,30.05,30.00,10,6,0,15,3,23,T,1,Fog-Rain,250
2013-8-9,71,62,53,55,50,43,93,66,39,30.11,30.02,29.97,10,10,8,20,6,28,0.02,5,Rain,298
2013-8-10,70,59,48,55,51,48,96,72,47,30.19,30.15,30.12,10,9,1,12,3,16,0.00,6,,271
2013-8-11,75,59,43,57,48,43,100,71,41,30.15,30.12,30.04,10,5,0,8,3,15,0.00,1,Fog,255
2013-8-12,74,59,43,58,53,42,100,71,41,30.10,30.02,29.97,10,7,0,16,5,24,0.01,4,Fog-Rain,284
2013-8-13,64,51,38,48,41,37,100,73,46,30.24,30.16,30.09,10,8,1,13,4,21,0.00,2,,340
2013-8-14,69,52,34,47,39,33,100,70,39,30.26,30.22,30.15,10,5,0,12,3,15,0.00,2,Fog,278
2013-8-15,75,58,41,53,45,39,100,69,38,30.17,30.14,30.10,10,8,1,13,4,20,0.00,2,,276
2013-8-16,78,61,44,56,49,45,100,68,36,30.22,30.19,30.16,10,5,0,9,2,17,0.00,1,Fog,264
2013-8-17,80,64,48,58,50,46,100,69,37,30.27,30.23,30.17,10,4,0,13,3,17,0.01,1,Fog,238
2013-8-18,79,64,48,56,52,46,93,66,39,30.22,30.16,30.08,10,8,0,15,5,21,0.00,0,Fog,220
2013-8-19,80,68,55,63,59,53,93,74,54,30.08,30.02,29.99,10,10,8,18,9,24,0.00,1,,224
2013-8-20,85,74,63,66,63,60,93,72,51,30.03,29.98,29.94,10,9,6,17,9,25,0.00,2,,213
2013-8-21,87,73,59,72,65,59,93,75,57,30.05,29.96,29.87,10,8,0,16,7,21,T,3,Fog-Rain-Thunderstorm,253
2013-8-22,80,66,52,63,54,41,100,64,27,30.19,30.09,30.03,10,5,0,10,3,16,0.01,1,Fog-Rain,2
2013-8-23,79,64,48,57,52,45,89,65,41,30.24,30.19,30.15,10,10,10,12,4,17,0.00,2,,170
2013-8-24,80,69,57,65,57,50,93,69,45,30.25,30.16,30.08,10,10,10,18,9,24,0.00,2,,187
2013-8-25,92,81,70,70,68,64,90,69,47,30.09,30.03,29.98,10,10,8,20,13,26,0.00,0,,228
2013-8-26,83,75,66,74,69,64,100,85,69,30.11,30.03,29.96,10,7,1,24,7,39,1.06,6,Rain-Thunderstorm,239
2013-8-27,81,74,66,73,70,66,100,90,79,29.96,29.91,29.85,10,7,1,13,2,15,0.74,6,Rain-Thunderstorm,78
2013-8-28,83,72,61,68,64,57,100,72,43,30.08,30.02,29.94,10,5,0,7,2,12,T,1,Fog,54
2013-8-29,81,71,61,69,65,61,100,81,62,30.12,30.05,29.89,10,5,0,22,6,32,2.27,4,Fog-Rain-Thunderstorm,136
2013-8-30,76,72,68,70,64,55,97,79,60,29.97,29.91,29.83,10,9,3,13,7,21,T,5,Rain,359
2013-8-31,81,67,53,63,58,53,100,76,51,29.97,29.91,29.81,10,5,0,10,2,14,0.00,1,Fog,217